createdAt,value
2022-10-01T00:00:17.079Z,11.27
2022-10-01T00:02:45.234Z,12.10
2022-10-01T00:05:13.927Z,9.63
2022-10-01T00:07:44.555Z,10.73
2022-10-01T00:10:15.085Z,8.90
2022-10-01T00:12:47.229Z,8.90
2022-10-01T00:15:21.780Z,8.67
2022-10-01T00:17:51.034Z,9.27
2022-10-01T00:20:19.588Z,9.20
2022-10-01T00:22:47.783Z,10.33
2022-10-01T00:25:16.013Z,9.83
2022-10-01T00:27:46.688Z,9.90
2022-10-01T00:30:20.212Z,13.87
2022-10-01T00:32:48.373Z,9.63
2022-10-01T00:35:16.640Z,11.70
2022-10-01T00:37:46.042Z,8.57
2022-10-01T00:40:14.127Z,10.47
2022-10-01T00:42:42.255Z,10.07
2022-10-01T00:45:13.071Z,9.60
2022-10-01T00:47:44.790Z,8.03
2022-10-01T00:50:19.650Z,9.93
2022-10-01T00:52:54.901Z,8.60
2022-10-01T00:55:28.051Z,8.83
2022-10-01T00:57:57.414Z,8.33
2022-10-01T01:00:26.167Z,8.73
2022-10-01T01:02:56.465Z,8.80
2022-10-01T01:05:27.693Z,9.53
2022-10-01T01:07:55.987Z,9.87
2022-10-01T01:10:31.937Z,6.80
2022-10-01T01:13:13.623Z,5.97
2022-10-01T01:15:48.415Z,6.40
2022-10-01T01:18:22.928Z,9.47
2022-10-01T01:21:11.433Z,5.77
2022-10-01T01:24:15.393Z,5.90
2022-10-01T01:27:07.584Z,8.10
2022-10-01T01:29:43.265Z,5.17
2022-10-01T01:32:18.448Z,5.50
2022-10-01T01:34:50.359Z,4.77
2022-10-01T01:37:22.733Z,4.97
2022-10-01T01:39:56.315Z,4.83
2022-10-01T01:42:31.334Z,3.93
2022-10-01T01:45:03.516Z,3.83
2022-10-01T01:47:33.623Z,4.53
2022-10-01T01:50:04.101Z,3.80
2022-10-01T01:52:33.939Z,4.07
2022-10-01T01:55:08.722Z,3.83
2022-10-01T01:57:41.467Z,3.70
2022-10-01T02:00:12.914Z,4.43
2022-10-01T02:02:44.390Z,3.90
2022-10-01T02:05:17.009Z,4.77
2022-10-01T02:08:12.285Z,4.97
2022-10-01T02:10:59.533Z,4.47
2022-10-01T02:13:39.115Z,3.80
2022-10-01T02:16:19.306Z,3.40
2022-10-01T02:18:53.612Z,4.83
2022-10-01T02:21:24.727Z,3.50
2022-10-01T02:23:58.231Z,3.60
2022-10-01T02:26:29.101Z,3.10
2022-10-01T02:29:00.508Z,3.27
2022-10-01T02:31:32.273Z,3.20
2022-10-01T02:34:03.440Z,3.47
2022-10-01T02:36:33.638Z,3.20
2022-10-01T02:39:04.326Z,3.60
2022-10-01T02:41:38.657Z,3.90
2022-10-01T02:44:11.745Z,4.13
2022-10-01T02:46:46.191Z,4.50
2022-10-01T02:49:15.250Z,4.70
2022-10-01T02:51:51.593Z,5.10
2022-10-01T02:54:25.727Z,5.27
2022-10-01T02:57:11.777Z,5.37
2022-10-01T02:59:39.944Z,6.77
2022-10-01T03:02:09.853Z,6.10
2022-10-01T03:04:38.794Z,6.53
2022-10-01T03:07:07.433Z,6.47
2022-10-01T03:09:36.722Z,6.67
2022-10-01T03:12:06.814Z,7.53
2022-10-01T03:14:35.057Z,6.50
2022-10-01T03:17:03.244Z,7.93
2022-10-01T03:19:33.112Z,6.77
2022-10-01T03:22:03.235Z,6.50
2022-10-01T03:24:31.328Z,6.33
2022-10-01T03:26:59.767Z,6.83
2022-10-01T03:29:28.458Z,6.47
2022-10-01T03:31:56.957Z,7.90
2022-10-01T03:34:25.107Z,7.63
2022-10-01T03:36:54.893Z,8.23
2022-10-01T03:39:22.988Z,7.27
2022-10-01T03:41:51.101Z,6.07
2022-10-01T03:44:19.503Z,6.17
2022-10-01T03:46:47.576Z,6.43
2022-10-01T03:49:16.035Z,6.17
2022-10-01T03:51:45.219Z,6.00
2022-10-01T03:54:15.204Z,7.20
2022-10-01T03:56:43.747Z,6.27
2022-10-01T03:59:12.033Z,6.03
2022-10-01T04:01:40.563Z,6.33
2022-10-01T04:04:09.740Z,6.30
2022-10-01T04:06:37.895Z,6.33
2022-10-01T04:09:06.729Z,6.00
2022-10-01T04:11:36.916Z,6.30
2022-10-01T04:14:05.748Z,5.83
2022-10-01T04:16:36.487Z,6.10
2022-10-01T04:19:05.285Z,8.07
2022-10-01T04:21:33.910Z,6.20
2022-10-01T04:24:05.175Z,5.93
2022-10-01T04:26:35.111Z,5.37
2022-10-01T04:29:03.275Z,6.53
2022-10-01T04:31:35.348Z,6.87
2022-10-01T04:34:04.465Z,7.50
2022-10-01T04:36:32.586Z,6.97
2022-10-01T04:39:02.375Z,7.77
2022-10-01T04:41:32.010Z,8.93
2022-10-01T04:44:02.069Z,8.50
2022-10-01T04:46:30.880Z,9.83
2022-10-01T04:48:59.423Z,8.63
2022-10-01T04:51:27.709Z,9.00
2022-10-01T04:53:55.841Z,10.73
2022-10-01T04:56:24.104Z,10.43
2022-10-01T04:58:52.333Z,10.80
2022-10-01T05:01:21.867Z,9.87
2022-10-01T05:03:50.458Z,10.37
2022-10-01T05:06:18.707Z,13.07
2022-10-01T05:08:49.729Z,8.77
2022-10-01T05:11:18.066Z,8.87
2022-10-01T05:13:46.545Z,9.50
2022-10-01T05:16:14.691Z,8.30
2022-10-01T05:18:45.150Z,6.93
2022-10-01T05:21:15.642Z,6.90
2022-10-01T05:23:44.461Z,7.20
2022-10-01T05:26:12.665Z,13.33
2022-10-01T05:28:44.624Z,14.87
2022-10-01T05:31:13.820Z,9.30
2022-10-01T05:33:43.402Z,9.63
2022-10-01T05:36:11.653Z,12.77
2022-10-01T05:38:39.783Z,7.77
2022-10-01T05:41:07.976Z,10.03
2022-10-01T05:43:36.369Z,6.30
2022-10-01T05:46:06.520Z,6.77
2022-10-01T05:48:37.798Z,9.50
2022-10-01T05:51:08.651Z,6.13
2022-10-01T05:53:38.493Z,8.73
2022-10-01T05:56:07.183Z,7.50
2022-10-01T05:58:35.649Z,9.20
2022-10-01T06:01:04.921Z,8.87
2022-10-01T06:03:33.082Z,9.20
2022-10-01T06:06:01.946Z,5.87
2022-10-01T06:08:31.584Z,7.17
2022-10-01T06:11:03.430Z,9.93
2022-10-01T06:13:32.172Z,5.20
2022-10-01T06:16:00.365Z,5.53
2022-10-01T06:18:31.325Z,9.97
2022-10-01T06:21:02.564Z,10.87
2022-10-01T06:23:32.104Z,10.87
2022-10-01T06:26:00.990Z,4.53
2022-10-01T06:28:29.702Z,10.47
2022-10-01T06:30:57.938Z,6.37
2022-10-01T06:33:26.326Z,8.93
2022-10-01T06:35:54.456Z,12.23
2022-10-01T06:38:24.203Z,12.57
2022-10-01T06:40:55.660Z,11.37
2022-10-01T06:43:24.709Z,15.17
2022-10-01T06:45:53.371Z,11.50
2022-10-01T06:48:22.187Z,15.33
2022-10-01T06:50:52.208Z,20.87
2022-10-01T06:53:20.555Z,19.73
2022-10-01T06:55:50.085Z,23.00
2022-10-01T06:58:21.655Z,17.40
2022-10-01T07:00:50.770Z,18.07
2022-10-01T07:03:21.328Z,22.13
2022-10-01T07:05:50.328Z,19.43
2022-10-01T07:08:18.939Z,24.43
2022-10-01T07:10:47.174Z,14.23
2022-10-01T07:13:17.755Z,18.53
2022-10-01T07:15:47.796Z,27.20
2022-10-01T07:18:16.952Z,17.57
2022-10-01T07:20:45.039Z,22.60
2022-10-01T07:23:15.255Z,17.73
2022-10-01T07:25:44.572Z,14.97
2022-10-01T07:28:18.660Z,14.60
2022-10-01T07:30:58.292Z,19.00
2022-10-01T07:33:26.893Z,16.27
2022-10-01T07:35:55.205Z,20.57
2022-10-01T07:38:23.500Z,14.17
2022-10-01T07:40:55.203Z,15.83
2022-10-01T07:43:23.991Z,14.50
2022-10-01T07:45:55.268Z,17.53
2022-10-01T07:48:23.721Z,16.90
2022-10-01T07:50:52.324Z,17.00
2022-10-01T07:53:20.976Z,20.90
2022-10-01T07:55:49.122Z,17.97
2022-10-01T07:58:18.716Z,18.67
2022-10-01T08:00:46.985Z,19.30
2022-10-01T08:03:16.697Z,23.60
2022-10-01T08:05:46.452Z,19.20
2022-10-01T08:08:14.600Z,27.13
2022-10-01T08:10:43.010Z,18.90
2022-10-01T08:13:15.362Z,19.73
2022-10-01T08:15:44.893Z,14.53
2022-10-01T08:18:13.460Z,20.17
2022-10-01T08:20:43.317Z,19.43
2022-10-01T08:23:14.300Z,21.80
2022-10-01T08:25:44.447Z,17.67
2022-10-01T08:28:13.451Z,17.27
2022-10-01T08:30:43.610Z,14.27
2022-10-01T08:33:13.579Z,16.70
2022-10-01T08:35:43.631Z,13.03
2022-10-01T08:38:12.633Z,18.57
2022-10-01T08:40:46.615Z,18.23
2022-10-01T08:43:31.216Z,18.13
2022-10-01T08:46:02.652Z,22.40
2022-10-01T08:48:46.079Z,21.27
2022-10-01T08:51:23.033Z,18.40
2022-10-01T08:53:55.235Z,18.77
2022-10-01T08:56:25.904Z,18.40
2022-10-01T08:58:59.207Z,21.37
2022-10-01T09:01:28.486Z,20.80
2022-10-01T09:03:57.203Z,21.83
2022-10-01T09:06:28.819Z,20.07
2022-10-01T09:09:09.333Z,13.03
2022-10-01T09:11:48.945Z,20.93
2022-10-01T09:14:51.755Z,18.20
2022-10-01T09:17:29.391Z,22.63
2022-10-01T09:20:04.866Z,16.73
2022-10-01T09:22:40.427Z,15.60
2022-10-01T09:25:15.407Z,14.93
2022-10-01T09:27:44.208Z,17.67
2022-10-01T09:30:16.068Z,13.30
2022-10-01T09:32:48.134Z,12.30
2022-10-01T09:35:30.925Z,19.67
2022-10-01T09:38:04.808Z,15.87
2022-10-01T09:40:39.429Z,12.77
2022-10-01T09:43:09.249Z,21.80
2022-10-01T09:45:39.597Z,15.10
2022-10-01T09:48:19.777Z,18.00
2022-10-01T09:50:54.572Z,15.00
2022-10-01T09:53:29.114Z,12.77
2022-10-01T09:56:02.374Z,17.20
2022-10-01T09:58:31.437Z,17.83
2022-10-01T10:01:00.746Z,20.03
2022-10-01T10:03:30.764Z,15.97
2022-10-01T10:06:02.020Z,11.53
2022-10-01T10:08:37.012Z,8.87
2022-10-01T10:11:09.575Z,11.70
2022-10-01T10:13:40.912Z,11.70
2022-10-01T10:16:15.439Z,18.77
2022-10-01T10:18:43.854Z,10.40
2022-10-01T10:21:17.118Z,16.37
2022-10-01T10:23:51.470Z,14.90
2022-10-01T10:26:22.533Z,14.70
2022-10-01T10:28:50.717Z,15.90
2022-10-01T10:31:24.446Z,8.43
2022-10-01T10:33:55.587Z,12.87
2022-10-01T10:36:29.099Z,21.97
2022-10-01T10:39:00.093Z,14.97
2022-10-01T10:41:31.016Z,11.33
2022-10-01T10:44:02.282Z,11.07
2022-10-01T10:46:32.435Z,10.77
2022-10-01T10:49:06.396Z,16.17
2022-10-01T10:51:45.784Z,11.83
2022-10-01T10:54:32.526Z,10.57
2022-10-01T10:57:03.470Z,10.80
2022-10-01T10:59:33.476Z,10.57
2022-10-01T11:02:03.929Z,12.77
2022-10-01T11:04:40.994Z,10.43
2022-10-01T11:07:11.361Z,13.70
2022-10-01T11:09:52.534Z,7.90
2022-10-01T11:12:35.484Z,8.83
2022-10-01T11:15:17.659Z,12.17
2022-10-01T11:18:20.783Z,13.17
2022-10-01T11:21:00.947Z,6.60
2022-10-01T11:23:55.277Z,8.03
2022-10-01T11:26:32.113Z,15.67
2022-10-01T11:29:13.350Z,8.90
2022-10-01T11:31:52.785Z,11.53
2022-10-01T11:34:53.056Z,10.83
2022-10-01T11:37:41.860Z,12.23
2022-10-01T11:40:18.812Z,13.53
2022-10-01T11:42:51.048Z,9.03
2022-10-01T11:45:22.925Z,17.23
2022-10-01T11:47:55.559Z,13.00
2022-10-01T11:50:26.676Z,11.60
2022-10-01T11:52:58.937Z,10.23
2022-10-01T11:55:49.307Z,10.13
2022-10-01T11:58:44.359Z,25.97
2022-10-01T12:01:18.840Z,10.80
2022-10-01T12:04:01.875Z,8.37
2022-10-01T12:06:34.414Z,10.27
2022-10-01T12:09:09.019Z,8.93
2022-10-01T12:11:43.678Z,6.93
2022-10-01T12:14:18.612Z,12.37
2022-10-01T12:16:52.933Z,10.83
2022-10-01T12:19:26.482Z,8.20
2022-10-01T12:21:58.887Z,8.10
2022-10-01T12:24:32.650Z,14.63
2022-10-01T12:27:21.009Z,13.13
2022-10-01T12:29:59.645Z,12.50
2022-10-01T12:32:37.425Z,9.13
2022-10-01T12:35:19.239Z,7.50
2022-10-01T12:38:02.973Z,9.97
2022-10-01T12:40:40.038Z,14.93
2022-10-01T12:43:25.875Z,9.80
2022-10-01T12:46:03.578Z,10.70
2022-10-01T12:48:37.550Z,10.53
2022-10-01T12:51:24.103Z,9.20
2022-10-01T12:54:02.607Z,10.60
2022-10-01T12:56:34.940Z,10.77
2022-10-01T12:59:40.893Z,8.27
2022-10-01T13:02:28.248Z,9.27
2022-10-01T13:05:10.563Z,9.47
2022-10-01T13:08:08.155Z,5.57
2022-10-01T13:10:48.823Z,11.43
2022-10-01T13:13:22.632Z,9.60
2022-10-01T13:15:56.170Z,6.77
2022-10-01T13:18:37.114Z,8.10
2022-10-01T13:21:14.491Z,8.53
2022-10-01T13:23:50.439Z,5.27
2022-10-01T13:26:23.441Z,10.93
2022-10-01T13:29:02.249Z,9.40
2022-10-01T13:31:40.284Z,11.07
2022-10-01T13:34:35.169Z,13.20
2022-10-01T13:37:14.752Z,6.53
2022-10-01T13:39:43.671Z,11.43
2022-10-01T13:42:21.657Z,8.00
2022-10-01T13:44:56.563Z,8.83
2022-10-01T13:47:25.929Z,11.67
2022-10-01T13:50:04.011Z,31.20
2022-10-01T13:52:33.228Z,6.93
2022-10-01T13:55:03.092Z,13.80
2022-10-01T13:57:34.878Z,10.73
2022-10-01T14:00:21.154Z,9.37
2022-10-01T14:03:06.139Z,6.23
2022-10-01T14:05:37.982Z,8.83
2022-10-01T14:08:15.716Z,10.40
2022-10-01T14:11:10.217Z,8.00
2022-10-01T14:14:03.506Z,16.17
2022-10-01T14:16:36.976Z,7.33
2022-10-01T14:19:06.101Z,7.53
2022-10-01T14:21:50.242Z,9.97
2022-10-01T14:24:27.491Z,4.30
2022-10-01T14:26:59.732Z,10.37
2022-10-01T14:29:44.328Z,4.17
2022-10-01T14:32:24.129Z,11.10
2022-10-01T14:35:07.038Z,9.80
2022-10-01T14:37:41.218Z,9.70
2022-10-01T14:40:17.748Z,5.53
2022-10-01T14:42:45.940Z,6.90
2022-10-01T14:45:19.049Z,8.87
2022-10-01T14:47:48.881Z,10.00
2022-10-01T14:50:21.680Z,7.47
2022-10-01T14:52:54.981Z,10.33
2022-10-01T14:55:25.627Z,10.03
2022-10-01T14:57:55.937Z,8.03
2022-10-01T15:00:26.494Z,11.03
2022-10-01T15:03:03.433Z,14.07
2022-10-01T15:05:33.488Z,11.37
2022-10-01T15:08:13.389Z,5.23
2022-10-01T15:10:45.761Z,10.93
2022-10-01T15:13:21.397Z,10.23
2022-10-01T15:15:50.023Z,11.70
2022-10-01T15:18:19.180Z,10.57
2022-10-01T15:20:56.205Z,10.27
2022-10-01T15:23:28.902Z,11.53
2022-10-01T15:26:02.226Z,8.97
2022-10-01T15:28:35.214Z,10.73
2022-10-01T15:31:05.469Z,8.33
2022-10-01T15:33:36.066Z,8.40
2022-10-01T15:36:07.049Z,6.93
2022-10-01T15:38:37.209Z,5.57
2022-10-01T15:41:30.454Z,10.93
2022-10-01T15:43:58.550Z,10.10
2022-10-01T15:46:33.198Z,8.03
2022-10-01T15:49:18.115Z,8.90
2022-10-01T15:52:12.440Z,10.00
2022-10-01T15:54:44.129Z,10.37
2022-10-01T15:57:18.657Z,7.63
2022-10-01T15:59:47.711Z,10.17
2022-10-01T16:02:20.604Z,8.60
2022-10-01T16:04:52.240Z,11.40
2022-10-01T16:07:23.363Z,10.13
2022-10-01T16:09:58.677Z,10.87
2022-10-01T16:12:29.243Z,5.87
2022-10-01T16:15:02.452Z,6.57
2022-10-01T16:17:35.601Z,8.57
2022-10-01T16:20:35.901Z,7.97
2022-10-01T16:23:35.872Z,7.30
2022-10-01T16:26:27.683Z,13.37
2022-10-01T16:28:56.843Z,9.60
2022-10-01T16:31:25.759Z,11.27
2022-10-01T16:33:54.181Z,8.17
2022-10-01T16:36:24.418Z,9.20
2022-10-01T16:38:53.411Z,10.20
2022-10-01T16:41:26.315Z,14.20
2022-10-01T16:43:57.142Z,6.50
2022-10-01T16:46:25.469Z,9.40
2022-10-01T16:48:54.211Z,9.37
2022-10-01T16:51:22.967Z,6.07
2022-10-01T16:53:52.364Z,10.23
2022-10-01T16:56:26.969Z,9.40
2022-10-01T16:58:55.457Z,10.33
2022-10-01T17:01:23.796Z,12.97
2022-10-01T17:03:52.021Z,13.47
2022-10-01T17:06:20.274Z,9.83
2022-10-01T17:08:48.622Z,13.30
2022-10-01T17:11:16.962Z,11.40
2022-10-01T17:13:46.766Z,12.03
2022-10-01T17:16:15.370Z,7.17
2022-10-01T17:18:44.019Z,7.30
2022-10-01T17:21:13.020Z,10.90
2022-10-01T17:23:41.528Z,12.80
2022-10-01T17:26:10.127Z,14.03
2022-10-01T17:28:38.593Z,8.97
2022-10-01T17:31:13.219Z,10.10
2022-10-01T17:33:43.874Z,13.30
2022-10-01T17:36:12.623Z,7.93
2022-10-01T17:38:41.182Z,10.67
2022-10-01T17:41:09.416Z,12.77
2022-10-01T17:43:39.435Z,9.50
2022-10-01T17:46:09.255Z,9.77
2022-10-01T17:48:37.594Z,10.37
2022-10-01T17:51:07.253Z,12.70
2022-10-01T17:53:42.103Z,10.53
2022-10-01T17:56:13.511Z,10.83
2022-10-01T17:58:45.391Z,13.07
2022-10-01T18:01:20.050Z,12.30
2022-10-01T18:03:48.432Z,8.17
2022-10-01T18:06:16.702Z,15.27
2022-10-01T18:08:55.251Z,8.90
2022-10-01T18:11:24.970Z,13.30
2022-10-01T18:13:53.613Z,10.60
2022-10-01T18:16:24.251Z,14.50
2022-10-01T18:21:45.249Z,12.63
2022-10-01T18:24:13.748Z,18.63
2022-10-01T18:26:45.745Z,14.70
2022-10-01T18:29:19.885Z,12.93
2022-10-01T18:31:52.796Z,15.57
2022-10-01T18:34:26.268Z,18.80
2022-10-01T18:36:59.438Z,21.20
2022-10-01T18:39:34.671Z,17.30
2022-10-01T18:42:13.514Z,19.37
2022-10-01T18:44:41.967Z,22.43
2022-10-01T18:47:22.309Z,19.57
2022-10-01T18:50:18.460Z,31.40
2022-10-01T18:52:59.996Z,17.87
2022-10-01T18:56:10.869Z,24.67
2022-10-01T18:58:54.276Z,19.90
2022-10-01T19:01:31.854Z,24.30
2022-10-01T19:04:29.959Z,26.83
2022-10-01T19:07:09.775Z,16.20
2022-10-01T19:09:52.053Z,21.03
2022-10-01T19:12:35.619Z,21.60
2022-10-01T19:15:13.834Z,22.73
2022-10-01T19:17:50.996Z,21.00
2022-10-01T19:20:55.832Z,19.20
2022-10-01T19:23:48.352Z,19.57
2022-10-01T19:26:25.296Z,25.17
2022-10-01T19:29:06.360Z,22.87
2022-10-01T19:31:41.395Z,28.27
2022-10-01T19:34:19.055Z,22.10
2022-10-01T19:36:53.955Z,19.43
2022-10-01T19:39:27.469Z,24.20
2022-10-01T19:42:00.682Z,18.57
2022-10-01T19:44:35.386Z,29.50
2022-10-01T19:47:16.535Z,26.40
2022-10-01T19:49:48.984Z,21.47
2022-10-01T19:52:20.164Z,23.87
2022-10-01T19:54:54.143Z,27.50
2022-10-01T19:57:24.599Z,39.70
2022-10-01T19:59:56.992Z,21.20
2022-10-01T20:02:33.910Z,32.63
2022-10-01T20:05:06.502Z,20.53
2022-10-01T20:07:47.183Z,39.87
2022-10-01T20:10:22.163Z,33.73
2022-10-01T20:12:59.451Z,31.17
2022-10-01T20:15:38.786Z,27.87
2022-10-01T20:18:17.567Z,20.90
2022-10-01T20:21:01.099Z,23.73
2022-10-01T20:23:40.658Z,30.57
2022-10-01T20:26:16.988Z,18.40
2022-10-01T20:28:52.954Z,23.13
2022-10-01T20:31:28.415Z,24.97
2022-10-01T20:34:02.953Z,23.10
2022-10-01T20:36:39.416Z,27.10
2022-10-01T20:39:17.364Z,19.70
2022-10-01T20:41:49.297Z,19.27
2022-10-01T20:44:22.849Z,27.10
2022-10-01T20:46:54.862Z,22.13
2022-10-01T20:49:29.847Z,22.57
2022-10-01T20:52:05.469Z,27.67
2022-10-01T20:54:40.142Z,14.13
2022-10-01T20:57:17.065Z,25.10
2022-10-01T20:59:51.393Z,23.10
2022-10-01T21:02:29.901Z,19.93
2022-10-01T21:05:04.189Z,24.47
2022-10-01T21:07:38.077Z,24.77
2022-10-01T21:10:18.411Z,24.83
2022-10-01T21:12:55.910Z,18.10
2022-10-01T21:15:29.749Z,25.23
2022-10-01T21:18:03.901Z,28.77
2022-10-01T21:20:51.703Z,30.27
2022-10-01T21:23:35.208Z,24.40
2022-10-01T21:26:15.120Z,25.57
2022-10-01T21:29:17.234Z,31.13
2022-10-01T21:31:54.667Z,30.60
2022-10-01T21:34:33.806Z,27.30
2022-10-01T21:37:06.311Z,22.97
2022-10-01T21:39:40.281Z,34.70
2022-10-01T21:42:17.141Z,29.00
2022-10-01T21:45:21.981Z,27.73
2022-10-01T21:48:14.191Z,28.60
2022-10-01T21:50:51.475Z,26.70
2022-10-01T21:53:46.478Z,21.53
2022-10-01T21:56:39.174Z,24.00
2022-10-01T21:59:20.372Z,30.23
2022-10-01T22:02:03.432Z,34.40
2022-10-01T22:04:40.140Z,28.60
2022-10-01T22:07:17.976Z,33.07
2022-10-01T22:09:57.388Z,26.67
2022-10-01T22:12:28.987Z,30.53
2022-10-01T22:15:00.057Z,26.97
2022-10-01T22:17:33.039Z,26.47
2022-10-01T22:20:05.258Z,25.27
2022-10-01T22:22:38.331Z,34.17
2022-10-01T22:25:09.057Z,29.97
2022-10-01T22:27:44.578Z,40.27
2022-10-01T22:30:17.247Z,25.13
2022-10-01T22:32:52.561Z,27.60
2022-10-01T22:35:27.151Z,35.83
2022-10-01T22:38:00.018Z,29.10
2022-10-01T22:40:34.060Z,27.33
2022-10-01T22:43:06.319Z,32.30
2022-10-01T22:45:47.991Z,34.17
2022-10-01T22:48:41.129Z,33.23
2022-10-01T22:51:22.883Z,34.53
2022-10-01T22:54:09.391Z,30.03
2022-10-01T22:56:47.339Z,28.63
2022-10-01T22:59:26.381Z,30.10
2022-10-01T23:02:06.205Z,31.23
2022-10-01T23:04:45.466Z,31.80
2022-10-01T23:07:20.503Z,39.20
2022-10-01T23:09:55.271Z,28.67
2022-10-01T23:12:32.880Z,33.13
2022-10-01T23:15:13.303Z,27.40
2022-10-01T23:17:48.113Z,36.93
2022-10-01T23:20:30.106Z,32.87
2022-10-01T23:23:19.891Z,28.13
2022-10-01T23:26:03.540Z,30.50
2022-10-01T23:28:43.188Z,31.37
2022-10-01T23:31:19.534Z,26.33
2022-10-01T23:34:01.297Z,34.40
2022-10-01T23:36:37.660Z,26.83
2022-10-01T23:39:38.864Z,34.13
2022-10-01T23:42:20.302Z,33.37
2022-10-01T23:44:58.271Z,31.53
2022-10-01T23:47:34.583Z,25.67
2022-10-01T23:50:07.560Z,33.90
2022-10-01T23:52:41.861Z,36.37
2022-10-01T23:55:34.926Z,29.40
2022-10-01T23:58:05.168Z,27.00
